Kezdőlap
METAR-TAF:

METAR-TAF

Repülőterek :

Hanoi, Vietnam

földrajzi szélesség: 21-01N, földrajzi hosszúság: 105-48E, magasság: 6 m

Jelenlegi meteorológiai megfigyelések

A jelentés 39 perccel ezelõtt készült, 01:30 UTC
Keleti szél 4 kt
Hőmérséklet 21°C
Páratartalom 83%
Légköri nyomás 1020 hPa
Látótávolság: 5000 m
Párásság

METAR: VVNB 220130Z 08004KT 5000 BR NSC 21/18 Q1020 BECMG 6000 NSW

Idő: 09:09 (02:09 UTC)

Előrejelzés

A jelentés 3 órával és 9 perccel ezelõtt készült, 23:00 UTC
Az előrejelzés 22-én 00 óra UTC és 22-én 24 óra UTC között érvényes
Északkeleti szél 6 kt
Látótávolság: 6000 m
Szórványos felhőzet 3500 lábon
22-én 08 óra UTC és 22-én 09 óra UTC között fokozatosan kialakuló
Kelet-délkeleti szél 10 kt
22-én 17 óra UTC és 22-én 18 óra UTC között fokozatosan kialakuló
Látótávolság: 4000 m
Párásság

TAF: VVNB 212300Z 2200/2224 05006KT 6000 SCT035 BECMG 2208/2209 12010KT BECMG 2217/2218 4000 BR

Meteorológiai megfigyelések és előrejelzések több, mint 4000 repülőtéren (METAR és TAF jelentéseket).

A térképen piros és sárga pontok jelzik az elérhető meteorológiai állomásokat.

Mozgassa az egeret a pont fölött, hogy megjelenjen az állomás neve.

Azután kattintson az időjárási megfigyelések és előrejelzések megtekintéséhez.

A térkép megváltoztatása: kattintson a fekete keresztel jelölt zöld gombra ráközelítéshez, a vonallal jelölt zöld gombra távolításhoz, vagy a zöld nyilakra a szomszédos térképek eléréséhez.


METAR-TAF: